VEJS/IXW METAR and TAF weather

Enter ICAO airport designator
Station Type Date Time Source
VEJS METAR 2023/02/04 03:00 UTC NOAA

VEJS 040300Z 32002KT 1500 FU NSC 16/09 Q1016


Station Type Date Time Source
VEJS Decoded METAR 2023/02/04 03:00 UTC NOAA

Jamshedpur, India (VEJS) 22-49N 086-11E 142M
Feb 03, 2023 - 10:00 PM EST / 2023.02.04 0300 UTC
Wind: from the NW (320 degrees) at 2 MPH (2 KT):0
Visibility: less than 1 mile:0
Weather: smoke
Temperature: 60 F (16 C)
Dew Point: 48 F (9 C)
Relative Humidity: 63%
Pressure (altimeter): 30.00 in. Hg (1016 hPa)
ob: VEJS 040300Z 32002KT 1500 FU NSC 16/09 Q1016
cycle: 3

Station Type Date Time Source
VEJS TAF 2009/11/01 09:00 UTC NOAA

TAF VEJS 010900Z 0112/0121 36004KT 2500 HZ FEW020 SCT025 SCT100
BECMG 0116/0118 00000KT 2000 HZ FEW018 SCT
BECMG 0119/0121 00000KT 1600 BR

Example: see airport list